createdAt,value
2023-02-22T00:01:19.107Z,101628.09
2023-02-22T00:03:52.154Z,101621.13
2023-02-22T00:06:25.026Z,101622.84
2023-02-22T00:08:55.779Z,101620.19
2023-02-22T00:11:24.373Z,101614.03
2023-02-22T00:13:52.698Z,101615.78
2023-02-22T00:16:23.793Z,101612.28
2023-02-22T00:18:52.335Z,101609.66
2023-02-22T00:21:21.947Z,101602.66
2023-02-22T00:23:51.288Z,101609.63
2023-02-22T00:26:23.586Z,101607.88
2023-02-22T00:28:54.441Z,101604.34
2023-02-22T00:31:24.320Z,101599.13
2023-02-22T00:33:52.809Z,101599.97
2023-02-22T00:36:21.100Z,101592.97
2023-02-22T00:38:49.357Z,101593.81
2023-02-22T00:41:17.993Z,101594.69
2023-02-22T00:43:48.911Z,101594.66
2023-02-22T00:46:17.482Z,101585.88
2023-02-22T00:48:45.947Z,101585.88
2023-02-22T00:51:14.509Z,101584.97
2023-02-22T00:53:43.047Z,101586.72
2023-02-22T00:56:11.583Z,101585.88
2023-02-22T00:58:39.818Z,101589.38
2023-02-22T01:01:09.538Z,101574.53
2023-02-22T01:03:41.463Z,101578.84
2023-02-22T01:06:09.896Z,101582.34
2023-02-22T01:08:38.174Z,101575.38
2023-02-22T01:11:06.668Z,101576.25
2023-02-22T01:13:35.549Z,101578.84
2023-02-22T01:16:03.812Z,101575.38
2023-02-22T01:18:33.613Z,101570.16
2023-02-22T01:21:01.855Z,101559.66
2023-02-22T01:23:30.155Z,101566.66
2023-02-22T01:25:58.920Z,101555.28
2023-02-22T01:28:27.270Z,101557.88
2023-02-22T01:30:56.784Z,101556.13
2023-02-22T01:33:26.104Z,101551.72
2023-02-22T01:35:55.756Z,101542.06
2023-02-22T01:38:24.025Z,101536.84
2023-02-22T01:40:53.061Z,101549.91
2023-02-22T01:43:25.290Z,101537.63
2023-02-22T01:46:02.644Z,101536.75
2023-02-22T01:48:42.858Z,101541.97
2023-02-22T01:51:16.800Z,101531.50
2023-02-22T01:53:51.485Z,101542.84
2023-02-22T01:56:21.276Z,101535.88
2023-02-22T01:58:55.283Z,101528.84
2023-02-22T02:01:26.015Z,101527.97
2023-02-22T02:03:59.835Z,101538.44
2023-02-22T02:06:34.935Z,101529.69
2023-02-22T02:09:11.862Z,101531.41
2023-02-22T02:11:41.582Z,101527.03
2023-02-22T02:14:12.172Z,101521.84
2023-02-22T02:16:43.358Z,101532.31
2023-02-22T02:19:20.400Z,101530.53
2023-02-22T02:22:31.545Z,101527.88
2023-02-22T02:25:41.180Z,101530.50
2023-02-22T02:28:52.036Z,101524.38
2023-02-22T02:31:53.214Z,101522.66
2023-02-22T02:34:30.552Z,101524.38
2023-02-22T02:37:10.143Z,101512.16
2023-02-22T02:39:44.962Z,101516.53
2023-02-22T02:42:19.701Z,101511.25
2023-02-22T02:44:56.913Z,101506.88
2023-02-22T02:47:30.111Z,101509.47
2023-02-22T02:50:06.893Z,101507.78
2023-02-22T02:52:37.055Z,101513.88
2023-02-22T02:55:08.476Z,101502.53
2023-02-22T02:57:36.781Z,101494.66
2023-02-22T03:00:22.382Z,101492.06
2023-02-22T03:03:08.783Z,101488.56
2023-02-22T03:05:59.534Z,101485.06
2023-02-22T03:08:36.341Z,101484.19
2023-02-22T03:11:15.242Z,101478.97
2023-02-22T03:13:55.673Z,101471.94
2023-02-22T03:16:36.053Z,101471.91
2023-02-22T03:19:13.737Z,101471.91
2023-02-22T03:21:52.681Z,101471.03
2023-02-22T03:24:26.990Z,101460.56
2023-02-22T03:27:02.930Z,101457.91
2023-02-22T03:29:35.577Z,101455.25
2023-02-22T03:32:09.535Z,101459.66
2023-02-22T03:34:44.116Z,101443.91
2023-02-22T03:37:16.338Z,101446.50
2023-02-22T03:39:46.360Z,101449.13
2023-02-22T03:42:20.023Z,101439.53
2023-02-22T03:44:50.319Z,101445.63
2023-02-22T03:47:29.320Z,101443.00
2023-02-22T03:50:07.855Z,101443.91
2023-02-22T03:52:36.993Z,101447.38
2023-02-22T03:55:11.150Z,101443.91
2023-02-22T03:57:41.720Z,101443.03
2023-02-22T04:00:15.631Z,101442.16
2023-02-22T04:02:44.029Z,101435.19
2023-02-22T04:05:14.938Z,101433.41
2023-02-22T04:07:43.825Z,101434.28
2023-02-22T04:10:14.881Z,101434.28
2023-02-22T04:12:43.122Z,101434.28
2023-02-22T04:15:17.795Z,101432.50
2023-02-22T04:17:46.213Z,101422.91
2023-02-22T04:20:19.948Z,101430.75
2023-02-22T04:22:48.472Z,101432.50
2023-02-22T04:25:17.524Z,101429.88
2023-02-22T04:27:45.952Z,101418.50
2023-02-22T04:30:15.046Z,101410.63
2023-02-22T04:32:43.333Z,101415.81
2023-02-22T04:35:11.752Z,101402.69
2023-02-22T04:37:41.631Z,101411.41
2023-02-22T04:40:11.634Z,101406.16
2023-02-22T04:42:40.756Z,101406.16
2023-02-22T04:45:10.931Z,101406.16
2023-02-22T04:47:39.542Z,101394.78
2023-02-22T04:50:10.268Z,101395.63
2023-02-22T04:52:39.955Z,101404.34
2023-02-22T04:55:09.971Z,101399.13
2023-02-22T04:57:38.249Z,101392.09
2023-02-22T05:00:10.228Z,101392.09
2023-02-22T05:02:52.885Z,101389.50
2023-02-22T05:05:22.884Z,101392.94
2023-02-22T05:07:52.604Z,101390.31
2023-02-22T05:10:21.630Z,101394.72
2023-02-22T05:12:50.049Z,101387.75
2023-02-22T05:15:21.465Z,101393.00
2023-02-22T05:17:49.794Z,101401.72
2023-02-22T05:20:24.329Z,101400.91
2023-02-22T05:22:53.962Z,101402.63
2023-02-22T05:25:22.363Z,101396.53
2023-02-22T05:27:54.883Z,101402.66
2023-02-22T05:30:25.517Z,101399.19
2023-02-22T05:32:54.177Z,101403.47
2023-02-22T05:35:25.428Z,101402.56
2023-02-22T05:37:55.247Z,101389.50
2023-02-22T05:40:26.532Z,101392.97
2023-02-22T05:42:56.771Z,101389.50
2023-02-22T05:45:28.157Z,101388.63
2023-02-22T05:47:56.940Z,101390.41
2023-02-22T05:50:26.352Z,101382.53
2023-02-22T05:52:56.901Z,101380.78
2023-02-22T05:55:26.036Z,101386.06
2023-02-22T05:57:54.951Z,101381.69
2023-02-22T06:00:29.994Z,101370.38
2023-02-22T06:02:59.616Z,101371.22
2023-02-22T06:05:29.152Z,101362.50
2023-02-22T06:08:00.135Z,101376.47
2023-02-22T06:10:29.524Z,101364.25
2023-02-22T06:12:59.235Z,101372.94
2023-02-22T06:15:28.955Z,101363.34
2023-02-22T06:17:58.874Z,101367.69
2023-02-22T06:20:29.595Z,101363.34
2023-02-22T06:22:59.898Z,101365.94
2023-02-22T06:25:31.930Z,101366.00
2023-02-22T06:28:01.391Z,101359.84
2023-02-22T06:30:31.473Z,101369.44
2023-02-22T06:32:59.734Z,101360.69
2023-02-22T06:35:28.243Z,101370.25
2023-02-22T06:37:57.928Z,101358.03
2023-02-22T06:40:29.498Z,101358.00
2023-02-22T06:42:58.447Z,101365.84
2023-02-22T06:45:27.483Z,101360.56
2023-02-22T06:47:56.285Z,101357.06
2023-02-22T06:50:28.762Z,101351.78
2023-02-22T06:52:59.295Z,101348.22
2023-02-22T06:55:30.525Z,101343.00
2023-02-22T06:57:59.432Z,101348.19
2023-02-22T07:00:30.594Z,101349.03
2023-02-22T07:03:00.318Z,101351.69
2023-02-22T07:05:30.250Z,101349.94
2023-02-22T07:08:06.613Z,101346.50
2023-02-22T07:10:36.912Z,101341.28
2023-02-22T07:13:07.557Z,101339.59
2023-02-22T07:15:37.340Z,101341.38
2023-02-22T07:18:06.093Z,101335.25
2023-02-22T07:20:34.957Z,101341.38
2023-02-22T07:23:05.064Z,101341.38
2023-02-22T07:25:33.452Z,101335.25
2023-02-22T07:28:01.970Z,101335.28
2023-02-22T07:30:34.117Z,101327.50
2023-02-22T07:33:05.379Z,101331.91
2023-02-22T07:35:36.631Z,101332.78
2023-02-22T07:38:08.134Z,101328.44
2023-02-22T07:40:37.228Z,101322.31
2023-02-22T07:43:15.021Z,101318.84
2023-02-22T07:45:43.445Z,101317.09
2023-02-22T07:48:13.995Z,101319.72
2023-02-22T07:50:43.342Z,101320.56
2023-02-22T07:53:18.099Z,101325.03
2023-02-22T07:55:47.717Z,101327.66
2023-02-22T07:58:17.211Z,101331.19
2023-02-22T08:00:48.440Z,101322.50
2023-02-22T08:03:20.690Z,101327.00
2023-02-22T08:05:51.578Z,101329.66
2023-02-22T08:08:21.565Z,101323.63
2023-02-22T08:10:51.480Z,101319.28
2023-02-22T08:13:22.212Z,101315.00
2023-02-22T08:15:54.118Z,101322.88
2023-02-22T08:18:24.282Z,101311.56
2023-02-22T08:20:53.694Z,101307.22
2023-02-22T08:23:26.976Z,101310.78
2023-02-22T08:25:56.064Z,101310.78
2023-02-22T08:28:25.964Z,101302.06
2023-02-22T08:30:54.595Z,101306.44
2023-02-22T08:33:23.503Z,101305.56
2023-02-22T08:35:52.186Z,101303.03
2023-02-22T08:38:25.348Z,101297.84
2023-02-22T08:40:53.881Z,101304.00
2023-02-22T08:43:23.790Z,101297.06
2023-02-22T08:45:52.983Z,101306.78
2023-02-22T08:48:22.825Z,101300.72
2023-02-22T08:50:51.195Z,101305.13
2023-02-22T08:53:20.001Z,101304.25
2023-02-22T08:55:50.910Z,101306.03
2023-02-22T08:58:19.297Z,101307.81
2023-02-22T09:00:47.538Z,101311.31
2023-02-22T09:03:16.590Z,101306.06
2023-02-22T09:05:46.003Z,101305.22
2023-02-22T09:08:14.657Z,101300.03
2023-02-22T09:10:43.104Z,101293.91
2023-02-22T09:13:13.282Z,101299.19
2023-02-22T09:15:41.699Z,101290.44
2023-02-22T09:18:14.844Z,101290.50
2023-02-22T09:20:43.315Z,101287.91
2023-02-22T09:23:11.970Z,101277.41
2023-02-22T09:25:41.151Z,101274.78
2023-02-22T09:28:09.636Z,101272.13
2023-02-22T09:30:39.571Z,101273.03
2023-02-22T09:33:12.175Z,101266.03
2023-02-22T09:35:45.668Z,101264.25
2023-02-22T09:38:16.641Z,101271.28
2023-02-22T09:40:50.436Z,101269.50
2023-02-22T09:43:40.616Z,101272.16
2023-02-22T09:46:24.447Z,101268.66
2023-02-22T09:49:06.283Z,101274.78
2023-02-22T09:51:41.406Z,101270.41
2023-02-22T09:54:21.063Z,101273.00
2023-02-22T09:56:51.793Z,101278.25
2023-02-22T09:59:28.134Z,101273.00
2023-02-22T10:02:06.705Z,101278.31
2023-02-22T10:04:44.495Z,101282.72
2023-02-22T10:07:19.562Z,101273.09
2023-02-22T10:09:50.190Z,101269.59
2023-02-22T10:12:30.744Z,101276.56
2023-02-22T10:15:28.504Z,101271.31
2023-02-22T10:18:19.407Z,101271.31
2023-02-22T10:20:55.850Z,101271.31
2023-02-22T10:23:34.194Z,101273.06
2023-02-22T10:26:17.061Z,101276.56
2023-02-22T10:28:55.318Z,101283.56
2023-02-22T10:31:29.050Z,101275.66
2023-02-22T10:34:02.834Z,101283.50
2023-02-22T10:36:31.083Z,101288.75
2023-02-22T10:39:02.213Z,101270.34
2023-02-22T10:41:33.559Z,101267.75
2023-02-22T10:44:04.052Z,101259.91
2023-02-22T10:46:34.742Z,101267.75
2023-02-22T10:49:08.318Z,101254.66
2023-02-22T10:51:37.360Z,101254.59
2023-02-22T10:54:28.113Z,101253.72
2023-02-22T10:56:58.551Z,101255.44
2023-02-22T10:59:34.095Z,101251.94
2023-02-22T11:02:15.041Z,101248.44
2023-02-22T11:04:50.835Z,101244.97
2023-02-22T11:07:27.335Z,101239.75
2023-02-22T11:09:58.117Z,101231.88
2023-02-22T11:12:33.083Z,101223.13
2023-02-22T11:15:29.592Z,101227.53
2023-02-22T11:18:01.884Z,101230.28
2023-02-22T11:20:38.534Z,101232.94
2023-02-22T11:23:08.224Z,101223.31
2023-02-22T11:25:39.646Z,101223.31
2023-02-22T11:28:14.992Z,101212.84
2023-02-22T11:30:45.425Z,101212.00
2023-02-22T11:33:23.633Z,101211.09
2023-02-22T11:35:55.848Z,101221.63
2023-02-22T11:38:26.750Z,101225.13
2023-02-22T11:41:17.786Z,101228.63
2023-02-22T11:43:50.627Z,101232.16
2023-02-22T11:46:21.267Z,101229.53
2023-02-22T11:48:59.550Z,101220.75
2023-02-22T11:51:45.956Z,101224.28
2023-02-22T11:54:35.993Z,101210.28
2023-02-22T11:57:22.302Z,101205.88
2023-02-22T12:00:16.020Z,101206.78
2023-02-22T12:03:11.712Z,101198.00
2023-02-22T12:06:08.316Z,101191.00
2023-02-22T12:08:55.182Z,101183.97
2023-02-22T12:11:30.180Z,101174.34
2023-02-22T12:14:22.575Z,101172.59
2023-02-22T12:17:13.852Z,101163.81
2023-02-22T12:19:45.491Z,101174.34
2023-02-22T12:22:21.372Z,101176.97
2023-02-22T12:25:08.955Z,101169.06
2023-02-22T12:27:44.855Z,101164.72
2023-02-22T12:30:23.621Z,101155.94
2023-02-22T12:32:55.254Z,101169.97
2023-02-22T12:35:27.483Z,101169.94
2023-02-22T12:38:05.843Z,101169.94
2023-02-22T12:40:45.112Z,101169.94
2023-02-22T12:43:20.747Z,101169.94
2023-02-22T12:45:54.228Z,101177.84
2023-02-22T12:48:34.133Z,101168.22
2023-02-22T12:51:17.484Z,101162.94
2023-02-22T12:53:57.266Z,101166.47
2023-02-22T12:56:33.859Z,101159.41
2023-02-22T12:59:12.916Z,101153.25
2023-02-22T13:01:45.569Z,101153.22
2023-02-22T13:04:20.848Z,101157.59
2023-02-22T13:07:20.047Z,101152.31
2023-02-22T13:10:18.780Z,101156.69
2023-02-22T13:12:57.389Z,101158.47
2023-02-22T13:15:32.910Z,101166.34
2023-02-22T13:18:11.887Z,101168.13
2023-02-22T13:20:46.275Z,101177.78
2023-02-22T13:23:29.260Z,101172.53
2023-02-22T13:26:08.105Z,101172.53
2023-02-22T13:28:44.626Z,101168.16
2023-02-22T13:31:35.941Z,101163.78
2023-02-22T13:34:36.036Z,101162.06
2023-02-22T13:37:25.180Z,101157.69
2023-02-22T13:40:32.558Z,101155.91
2023-02-22T13:43:40.309Z,101158.56
2023-02-22T13:46:41.146Z,101146.25
2023-02-22T13:49:25.756Z,101144.50
2023-02-22T13:51:56.656Z,101146.25
2023-02-22T13:54:31.315Z,101141.84
2023-02-22T13:56:59.683Z,101139.22
2023-02-22T13:59:36.412Z,101129.56
2023-02-22T14:02:08.066Z,101127.81
2023-02-22T14:04:40.648Z,101121.66
2023-02-22T14:07:59.922Z,101113.81
2023-02-22T14:10:46.353Z,101113.75
2023-02-22T14:13:17.144Z,101108.50
2023-02-22T14:16:24.404Z,101116.41
2023-02-22T14:19:06.566Z,101120.75
2023-02-22T14:21:36.339Z,101113.75
2023-02-22T14:24:11.561Z,101126.00
2023-02-22T14:26:41.552Z,101122.50
2023-02-22T14:29:19.172Z,101129.53
2023-02-22T14:32:08.255Z,101125.13
2023-02-22T14:34:53.929Z,101132.16
2023-02-22T14:37:25.611Z,101132.16
2023-02-22T14:40:02.241Z,101122.53
2023-02-22T14:42:34.996Z,101123.44
2023-02-22T14:45:17.169Z,101130.47
2023-02-22T14:48:01.017Z,101123.47
2023-02-22T14:50:44.120Z,101126.13
2023-02-22T14:53:25.349Z,101126.13
2023-02-22T14:55:59.865Z,101119.13
2023-02-22T14:58:37.647Z,101127.03
2023-02-22T15:01:31.213Z,101124.41
2023-02-22T15:04:20.783Z,101124.41
2023-02-22T15:06:49.779Z,101117.41
2023-02-22T15:09:25.028Z,101117.44
2023-02-22T15:11:58.443Z,101118.28
2023-02-22T15:14:27.690Z,101120.91
2023-02-22T15:17:01.458Z,101129.66
2023-02-22T15:19:35.073Z,101122.69
2023-02-22T15:22:09.213Z,101113.91
2023-02-22T15:24:39.225Z,101128.78
2023-02-22T15:27:14.163Z,101124.41
2023-02-22T15:29:45.534Z,101122.63
2023-02-22T15:32:22.259Z,101120.91
2023-02-22T15:34:51.981Z,101120.03
2023-02-22T15:37:25.420Z,101126.16
2023-02-22T15:39:59.272Z,101122.63
2023-02-22T15:42:30.542Z,101123.50
2023-02-22T15:44:59.249Z,101129.66
2023-02-22T15:47:31.987Z,101127.00
2023-02-22T15:50:23.920Z,101136.63
2023-02-22T15:52:59.078Z,101134.88
2023-02-22T15:55:30.938Z,101130.53
2023-02-22T15:58:03.126Z,101136.66
2023-02-22T16:00:37.137Z,101133.13
2023-02-22T16:03:09.517Z,101131.38
2023-02-22T16:05:45.214Z,101138.38
2023-02-22T16:08:23.245Z,101130.44
2023-02-22T16:11:01.271Z,101129.56
2023-02-22T16:13:34.561Z,101129.59
2023-02-22T16:16:06.320Z,101123.44
2023-02-22T16:18:36.842Z,101130.41
2023-02-22T16:21:11.977Z,101131.28
2023-02-22T16:23:48.855Z,101129.53
2023-02-22T16:26:28.705Z,101132.16
2023-02-22T16:28:59.424Z,101130.41
2023-02-22T16:31:33.671Z,101124.28
2023-02-22T16:34:07.123Z,101126.88
2023-02-22T16:36:45.035Z,101126.00
2023-02-22T16:39:27.192Z,101132.09
2023-02-22T16:41:58.358Z,101132.09
2023-02-22T16:44:27.926Z,101134.72
2023-02-22T16:46:58.323Z,101143.44
2023-02-22T16:49:28.716Z,101143.41
2023-02-22T16:52:01.741Z,101145.13
2023-02-22T16:54:38.259Z,101140.72
2023-02-22T16:57:07.046Z,101138.97
2023-02-22T16:59:40.412Z,101140.72
2023-02-22T17:02:13.324Z,101141.59
2023-02-22T17:04:41.549Z,101140.69
2023-02-22T17:07:11.223Z,101138.06
2023-02-22T17:09:39.772Z,101142.44
2023-02-22T17:12:09.643Z,101143.34
2023-02-22T17:14:37.931Z,101144.19
2023-02-22T17:17:06.339Z,101143.31
2023-02-22T17:19:36.742Z,101145.09
2023-02-22T17:22:09.213Z,101145.09
2023-02-22T17:24:39.315Z,101152.06
2023-02-22T17:27:07.695Z,101156.44
2023-02-22T17:29:36.222Z,101162.56
2023-02-22T17:32:04.783Z,101160.78
2023-02-22T17:34:33.193Z,101159.03
2023-02-22T17:37:01.572Z,101159.03
2023-02-22T17:39:31.080Z,101164.28
2023-02-22T17:42:00.884Z,101149.38
2023-02-22T17:44:30.180Z,101159.88
2023-02-22T17:46:58.529Z,101162.47
2023-02-22T17:49:27.060Z,101160.72
2023-02-22T17:51:55.832Z,101153.75
2023-02-22T17:54:24.647Z,101166.81
2023-02-22T17:56:52.979Z,101165.06
2023-02-22T17:59:22.700Z,101170.28
2023-02-22T18:01:52.734Z,101169.38
2023-02-22T18:04:21.247Z,101168.53
2023-02-22T18:06:49.648Z,101175.47
2023-02-22T18:09:20.283Z,101167.63
2023-02-22T18:11:48.688Z,101163.22
2023-02-22T18:14:16.973Z,101170.22
2023-02-22T18:16:48.397Z,101170.22
2023-02-22T18:19:20.460Z,101179.81
2023-02-22T18:21:50.696Z,101176.31
2023-02-22T18:24:18.963Z,101185.06
2023-02-22T18:26:47.584Z,101178.91
2023-02-22T18:29:16.030Z,101188.56
2023-02-22T18:31:45.437Z,101185.06
2023-02-22T18:34:15.964Z,101189.41
2023-02-22T18:36:44.229Z,101185.03
2023-02-22T18:39:12.987Z,101190.28
2023-02-22T18:41:41.311Z,101191.19
2023-02-22T18:44:11.146Z,101185.94
2023-02-22T18:46:39.734Z,101183.31
2023-02-22T18:49:08.322Z,101175.47
2023-02-22T18:51:39.925Z,101179.84
2023-02-22T18:54:08.563Z,101183.31
2023-02-22T18:56:37.002Z,101177.22
2023-02-22T18:59:05.667Z,101174.59
2023-02-22T19:01:38.799Z,101178.94
2023-02-22T19:04:11.956Z,101173.72
2023-02-22T19:06:43.260Z,101175.50
2023-02-22T19:09:11.518Z,101167.63
2023-02-22T19:11:44.662Z,101170.25
2023-02-22T19:14:13.600Z,101169.34
2023-02-22T19:16:46.399Z,101172.84
2023-02-22T19:19:16.834Z,101175.47
2023-02-22T19:21:46.496Z,101183.34
2023-02-22T19:24:18.859Z,101178.06
2023-02-22T19:26:50.685Z,101183.31
2023-02-22T19:29:22.050Z,101182.44
2023-02-22T19:31:51.457Z,101177.19
2023-02-22T19:34:24.616Z,101178.91
2023-02-22T19:36:54.379Z,101185.91
2023-02-22T19:41:52.500Z,101169.28
2023-02-22T19:44:20.821Z,101173.63
2023-02-22T19:46:49.219Z,101176.22
2023-02-22T19:49:17.818Z,101177.09
2023-02-22T19:51:46.171Z,101173.59
2023-02-22T19:54:21.439Z,101171.84
2023-02-22T19:56:51.832Z,101173.56
2023-02-22T19:59:23.011Z,101172.72
2023-02-22T20:01:54.842Z,101176.25
2023-02-22T20:04:23.619Z,101186.69
2023-02-22T20:06:54.987Z,101174.47
2023-02-22T20:09:29.884Z,101183.22
2023-02-22T20:11:58.382Z,101181.44
2023-02-22T20:14:30.516Z,101181.44
2023-02-22T20:16:59.762Z,101182.28
2023-02-22T20:19:28.775Z,101184.84
2023-02-22T20:21:57.656Z,101191.84
2023-02-22T20:24:27.664Z,101192.69
2023-02-22T20:26:58.321Z,101193.53
2023-02-22T20:29:30.456Z,101197.00
2023-02-22T20:32:00.135Z,101191.72
2023-02-22T20:34:31.462Z,101183.84
2023-02-22T20:36:59.993Z,101178.59
2023-02-22T20:39:30.309Z,101183.84
2023-02-22T20:42:00.394Z,101198.69
2023-02-22T20:44:28.702Z,101189.91
2023-02-22T20:46:57.082Z,101191.66
2023-02-22T20:49:27.237Z,101192.53
2023-02-22T20:51:55.540Z,101196.88
2023-02-22T20:54:23.906Z,101192.47
2023-02-22T20:56:53.890Z,101192.47
2023-02-22T20:59:22.845Z,101190.72
2023-02-22T21:01:53.107Z,101195.03
2023-02-22T21:04:23.180Z,101197.63
2023-02-22T21:06:51.976Z,101185.41
2023-02-22T21:09:22.070Z,101194.97
2023-02-22T21:11:50.481Z,101188.84
2023-02-22T21:14:20.513Z,101180.97
2023-02-22T21:16:53.296Z,101187.06
2023-02-22T21:19:26.443Z,101187.94
2023-02-22T21:22:01.200Z,101187.00
2023-02-22T21:24:30.895Z,101193.09
2023-02-22T21:26:59.418Z,101190.44
2023-02-22T21:29:30.051Z,101188.69
2023-02-22T21:31:58.638Z,101196.50
2023-02-22T21:34:27.246Z,101198.22
2023-02-22T21:36:55.726Z,101198.16
2023-02-22T21:39:28.470Z,101199.91
2023-02-22T21:42:00.537Z,101195.50
2023-02-22T21:44:33.740Z,101202.47
2023-02-22T21:47:02.038Z,101206.81
2023-02-22T21:49:30.536Z,101203.28
2023-02-22T21:51:59.095Z,101199.81
2023-02-22T21:54:28.464Z,101209.38
2023-02-22T21:56:56.884Z,101211.94
2023-02-22T21:59:25.713Z,101208.38
2023-02-22T22:01:57.103Z,101205.72
2023-02-22T22:04:29.502Z,101207.44
2023-02-22T22:06:59.912Z,101210.88
2023-02-22T22:09:33.117Z,101206.47
2023-02-22T22:12:05.130Z,101199.44
2023-02-22T22:14:35.742Z,101210.75
2023-02-22T22:17:09.317Z,101209.00
2023-02-22T22:19:42.884Z,101202.00
2023-02-22T22:22:13.029Z,101204.63
2023-02-22T22:24:45.871Z,101205.47
2023-02-22T22:27:14.146Z,101199.31
2023-02-22T22:29:43.471Z,101204.56
2023-02-22T22:32:13.740Z,101210.66
2023-02-22T22:34:43.573Z,101209.75
2023-02-22T22:37:13.369Z,101214.91
2023-02-22T22:39:42.540Z,101217.53
2023-02-22T22:42:11.482Z,101219.22
2023-02-22T22:44:42.004Z,101214.81
2023-02-22T22:47:13.321Z,101220.03
2023-02-22T22:49:42.584Z,101226.97
2023-02-22T22:52:13.991Z,101229.66
2023-02-22T22:54:43.262Z,101235.78
2023-02-22T22:57:12.962Z,101237.56
2023-02-22T22:59:41.426Z,101237.59
2023-02-22T23:02:12.878Z,101237.59
2023-02-22T23:04:41.134Z,101241.06
2023-02-22T23:07:09.471Z,101237.63
2023-02-22T23:09:39.398Z,101235.88
2023-02-22T23:12:17.678Z,101234.13
2023-02-22T23:14:47.436Z,101236.75
2023-02-22T23:17:31.323Z,101236.75
2023-02-22T23:19:59.883Z,101244.59
2023-02-22T23:22:28.484Z,101251.59
2023-02-22T23:24:59.899Z,101256.81
2023-02-22T23:27:28.401Z,101254.22
2023-02-22T23:29:56.789Z,101254.19
2023-02-22T23:32:27.804Z,101248.03
2023-02-22T23:34:56.340Z,101257.59
2023-02-22T23:37:25.068Z,101253.22
2023-02-22T23:39:54.357Z,101240.94
2023-02-22T23:42:24.412Z,101252.25
2023-02-22T23:44:53.873Z,101258.31
2023-02-22T23:47:22.252Z,101258.28
2023-02-22T23:49:51.940Z,101259.97
2023-02-22T23:52:24.295Z,101268.66
2023-02-22T23:54:54.054Z,101266.03
2023-02-22T23:57:25.972Z,101266.03
2023-02-22T23:59:54.337Z,101271.25
